createdAt,value
2023-02-03T00:00:20.445Z,100663.06
2023-02-03T00:02:48.395Z,100675.31
2023-02-03T00:05:16.127Z,100678.72
2023-02-03T00:07:46.725Z,100686.91
2023-02-03T00:10:15.084Z,100683.41
2023-02-03T00:12:44.516Z,100692.91
2023-02-03T00:15:13.326Z,100696.12
2023-02-03T00:17:42.787Z,100705.66
2023-02-03T00:20:13.930Z,100707.19
2023-02-03T00:22:43.967Z,100710.38
2023-02-03T00:25:14.202Z,100713.41
2023-02-03T00:27:41.914Z,100708.16
2023-02-03T00:30:13.585Z,100720.38
2023-02-03T00:32:43.632Z,100727.91
2023-02-03T00:35:11.333Z,100726.78
2023-02-03T00:37:41.094Z,100739.44
2023-02-03T00:40:09.166Z,100735.44
2023-02-03T00:42:37.554Z,100733.06
2023-02-03T00:45:05.591Z,100732.75
2023-02-03T00:47:33.265Z,100733.59
2023-02-03T00:50:01.016Z,100722.25
2023-02-03T00:52:37.214Z,100734.09
2023-02-03T00:55:07.893Z,100750.31
2023-02-03T00:57:35.536Z,100764.41
2023-02-03T01:00:03.259Z,100754.53
2023-02-03T01:02:31.041Z,100755.75
2023-02-03T01:04:59.072Z,100754.41
2023-02-03T01:07:30.021Z,100767.06
2023-02-03T01:09:57.663Z,100766.91
2023-02-03T01:12:25.344Z,100776.50
2023-02-03T01:14:53.068Z,100789.56
2023-02-03T01:17:20.711Z,100782.37
2023-02-03T01:19:52.443Z,100798.75
2023-02-03T01:22:22.839Z,100804.47
2023-02-03T01:24:50.847Z,100793.47
2023-02-03T01:27:20.244Z,100806.19
2023-02-03T01:29:47.892Z,100796.53
2023-02-03T01:32:21.988Z,100800.19
2023-02-03T01:34:50.116Z,100792.53
2023-02-03T01:37:18.037Z,100803.06
2023-02-03T01:39:49.329Z,100802.25
2023-02-03T01:42:17.812Z,100791.69
2023-02-03T01:44:48.025Z,100808.41
2023-02-03T01:47:34.099Z,100807.38
2023-02-03T01:50:13.019Z,100808.56
2023-02-03T01:52:43.231Z,100807.53
2023-02-03T01:55:15.136Z,100817.56
2023-02-03T01:57:54.742Z,100822.41
2023-02-03T02:00:22.878Z,100825.06
2023-02-03T02:02:55.049Z,100824.41
2023-02-03T02:05:42.944Z,100831.19
2023-02-03T02:08:12.261Z,100831.31
2023-02-03T02:10:40.752Z,100837.41
2023-02-03T02:13:09.476Z,100820.50
2023-02-03T02:15:45.319Z,100820.00
2023-02-03T02:18:29.468Z,100811.62
2023-02-03T02:21:06.000Z,100813.97
2023-02-03T02:24:01.427Z,100809.06
2023-02-03T02:26:39.927Z,100806.47
2023-02-03T02:29:24.141Z,100814.91
2023-02-03T02:32:04.214Z,100811.88
2023-02-03T02:34:46.180Z,100800.41
2023-02-03T02:37:26.136Z,100802.38
2023-02-03T02:40:02.832Z,100809.06
2023-02-03T02:42:58.061Z,100810.97
2023-02-03T02:45:32.816Z,100816.75
2023-02-03T02:48:16.729Z,100810.56
2023-02-03T02:50:47.627Z,100819.66
2023-02-03T02:53:16.663Z,100824.53
2023-02-03T02:55:49.899Z,100827.44
2023-02-03T02:58:20.506Z,100822.59
2023-02-03T03:00:48.547Z,100821.38
2023-02-03T03:03:21.980Z,100832.16
2023-02-03T03:06:16.084Z,100827.09
2023-02-03T03:08:58.463Z,100830.84
2023-02-03T03:11:32.653Z,100830.28
2023-02-03T03:14:00.676Z,100821.38
2023-02-03T03:16:33.282Z,100812.81
2023-02-03T03:19:06.870Z,100816.78
2023-02-03T03:21:52.082Z,100814.88
2023-02-03T03:24:29.389Z,100807.81
2023-02-03T03:27:01.876Z,100811.94
2023-02-03T03:29:38.479Z,100813.59
2023-02-03T03:32:07.166Z,100816.47
2023-02-03T03:34:35.344Z,100819.44
2023-02-03T03:37:24.657Z,100816.25
2023-02-03T03:40:17.366Z,100811.31
2023-02-03T03:43:01.975Z,100815.78
2023-02-03T03:46:01.609Z,100807.50
2023-02-03T03:48:40.902Z,100814.38
2023-02-03T03:51:26.430Z,100808.75
2023-02-03T03:53:58.931Z,100815.06
2023-02-03T03:56:50.546Z,100808.22
2023-02-03T03:59:21.956Z,100810.19
2023-02-03T04:01:52.095Z,100804.56
2023-02-03T04:04:24.501Z,100800.03
2023-02-03T04:06:55.570Z,100799.72
2023-02-03T04:09:23.203Z,100804.38
2023-02-03T04:12:03.085Z,100801.38
2023-02-03T04:14:32.383Z,100806.91
2023-02-03T04:17:02.036Z,100797.22
2023-02-03T04:19:31.364Z,100803.09
2023-02-03T04:21:59.048Z,100796.13
2023-02-03T04:24:26.759Z,100785.41
2023-02-03T04:26:54.688Z,100780.31
2023-02-03T04:29:22.421Z,100785.81
2023-02-03T04:31:50.162Z,100777.31
2023-02-03T04:34:17.827Z,100784.47
2023-02-03T04:36:45.460Z,100803.47
2023-02-03T04:39:13.382Z,100789.81
2023-02-03T04:41:41.613Z,100794.59
2023-02-03T04:44:09.353Z,100793.25
2023-02-03T04:46:37.015Z,100800.41
2023-02-03T04:49:04.704Z,100785.38
2023-02-03T04:51:37.247Z,100778.91
2023-02-03T04:54:04.914Z,100797.09
2023-02-03T04:56:32.548Z,100793.44
2023-02-03T04:59:00.185Z,100790.66
2023-02-03T05:01:30.179Z,100794.97
2023-02-03T05:03:59.905Z,100782.13
2023-02-03T05:06:31.111Z,100775.16
2023-02-03T05:09:01.316Z,100767.12
2023-02-03T05:11:32.256Z,100772.31
2023-02-03T05:13:59.970Z,100781.31
2023-02-03T05:16:29.991Z,100785.66
2023-02-03T05:18:57.896Z,100788.81
2023-02-03T05:21:27.046Z,100783.47
2023-02-03T05:23:57.344Z,100786.81
2023-02-03T05:26:25.210Z,100799.16
2023-02-03T05:28:54.141Z,100791.81
2023-02-03T05:31:22.751Z,100799.50
2023-02-03T05:33:50.441Z,100809.72
2023-02-03T05:36:18.083Z,100805.22
2023-02-03T05:38:48.173Z,100801.72
2023-02-03T05:41:33.037Z,100796.87
2023-02-03T05:44:00.909Z,100802.72
2023-02-03T05:46:36.302Z,100796.22
2023-02-03T05:49:05.068Z,100799.06
2023-02-03T05:51:32.849Z,100799.72
2023-02-03T05:54:00.477Z,100794.72
2023-02-03T05:56:28.194Z,100793.19
2023-02-03T05:58:57.851Z,100796.91
2023-02-03T06:01:25.623Z,100798.56
2023-02-03T06:03:53.469Z,100798.53
2023-02-03T06:06:21.158Z,100790.69
2023-02-03T06:08:48.756Z,100778.81
2023-02-03T06:11:16.597Z,100781.44
2023-02-03T06:13:44.249Z,100777.09
2023-02-03T06:16:12.058Z,100778.09
2023-02-03T06:18:39.918Z,100775.91
2023-02-03T06:21:07.889Z,100779.72
2023-02-03T06:23:40.130Z,100783.69
2023-02-03T06:26:07.699Z,100783.03
2023-02-03T06:28:35.362Z,100780.38
2023-02-03T06:31:03.122Z,100794.41
2023-02-03T06:33:36.497Z,100784.72
2023-02-03T06:36:06.885Z,100795.06
2023-02-03T06:38:34.655Z,100795.72
2023-02-03T06:41:02.415Z,100791.69
2023-02-03T06:43:33.573Z,100800.19
2023-02-03T06:46:01.209Z,100805.00
2023-02-03T06:48:28.931Z,100811.03
2023-02-03T06:50:56.844Z,100805.00
2023-02-03T06:53:24.558Z,100811.50
2023-02-03T06:55:52.169Z,100808.62
2023-02-03T06:58:22.320Z,100808.47
2023-02-03T07:00:51.497Z,100814.28
2023-02-03T07:03:21.774Z,100817.63
2023-02-03T07:05:51.604Z,100805.72
2023-02-03T07:08:19.309Z,100802.56
2023-02-03T07:10:47.210Z,100804.28
2023-02-03T07:13:14.924Z,100804.16
2023-02-03T07:15:43.094Z,100803.00
2023-02-03T07:18:14.983Z,100805.38
2023-02-03T07:20:45.650Z,100802.87
2023-02-03T07:23:15.733Z,100801.38
2023-02-03T07:25:43.416Z,100800.38
2023-02-03T07:28:11.125Z,100802.69
2023-02-03T07:30:38.819Z,100801.31
2023-02-03T07:33:08.139Z,100807.34
2023-02-03T07:35:35.868Z,100809.34
2023-02-03T07:38:03.485Z,100807.16
2023-02-03T07:40:31.122Z,100816.87
2023-02-03T07:42:59.839Z,100820.88
2023-02-03T07:45:27.747Z,100823.03
2023-02-03T07:47:55.474Z,100825.00
2023-02-03T07:50:24.295Z,100825.59
2023-02-03T07:52:53.208Z,100830.94
2023-02-03T07:55:24.495Z,100830.59
2023-02-03T07:57:54.359Z,100825.97
2023-02-03T08:00:22.590Z,100823.69
2023-02-03T08:02:50.279Z,100840.09
2023-02-03T08:05:20.289Z,100847.47
2023-02-03T08:07:47.902Z,100849.84
2023-02-03T08:10:17.928Z,100844.16
2023-02-03T08:12:46.786Z,100829.66
2023-02-03T08:15:17.329Z,100833.50
2023-02-03T08:17:45.103Z,100836.53
2023-02-03T08:20:13.281Z,100837.72
2023-02-03T08:22:40.877Z,100840.53
2023-02-03T08:25:09.336Z,100829.00
2023-02-03T08:27:37.129Z,100835.53
2023-02-03T08:30:05.572Z,100836.84
2023-02-03T08:32:34.300Z,100831.84
2023-02-03T08:35:02.020Z,100829.50
2023-02-03T08:37:32.933Z,100833.19
2023-02-03T08:40:00.999Z,100836.69
2023-02-03T08:42:28.911Z,100835.69
2023-02-03T08:44:56.801Z,100836.53
2023-02-03T08:47:26.655Z,100834.03
2023-02-03T08:49:54.478Z,100843.53
2023-02-03T08:52:24.953Z,100846.41
2023-02-03T08:54:52.587Z,100845.22
2023-02-03T08:57:20.744Z,100846.72
2023-02-03T08:59:48.957Z,100841.88
2023-02-03T09:02:19.583Z,100853.06
2023-02-03T09:04:49.207Z,100857.59
2023-02-03T09:07:17.061Z,100856.41
2023-02-03T09:09:44.744Z,100867.63
2023-02-03T09:12:15.431Z,100856.75
2023-02-03T09:14:45.424Z,100854.25
2023-02-03T09:17:13.584Z,100863.59
2023-02-03T09:19:42.020Z,100861.59
2023-02-03T09:22:11.763Z,100863.94
2023-02-03T09:24:39.735Z,100859.94
2023-02-03T09:27:07.568Z,100855.78
2023-02-03T09:29:37.933Z,100852.62
2023-02-03T09:32:08.860Z,100852.97
2023-02-03T09:34:36.803Z,100840.44
2023-02-03T09:37:04.623Z,100836.28
2023-02-03T09:39:32.454Z,100832.44
2023-02-03T09:42:13.916Z,100829.78
2023-02-03T09:45:02.561Z,100826.25
2023-02-03T09:47:38.596Z,100823.72
2023-02-03T09:50:13.021Z,100814.56
2023-02-03T09:52:44.868Z,100811.22
2023-02-03T09:55:37.152Z,100794.62
2023-02-03T09:58:25.682Z,100786.44
2023-02-03T10:01:02.411Z,100780.75
2023-02-03T10:03:48.485Z,100766.69
2023-02-03T10:06:39.210Z,100763.41
2023-02-03T10:09:12.947Z,100767.72
2023-02-03T10:12:02.123Z,100757.69
2023-02-03T10:15:00.511Z,100743.38
2023-02-03T10:17:55.926Z,100741.00
2023-02-03T10:20:33.479Z,100734.50
2023-02-03T10:23:06.653Z,100730.97
2023-02-03T10:25:40.992Z,100721.97
2023-02-03T10:28:19.465Z,100714.31
2023-02-03T10:30:55.385Z,100698.75
2023-02-03T10:33:23.443Z,100691.97
2023-02-03T10:35:54.544Z,100693.28
2023-02-03T10:38:40.423Z,100692.44
2023-02-03T10:41:08.395Z,100695.06
2023-02-03T10:43:57.659Z,100689.06
2023-02-03T10:46:36.917Z,100677.91
2023-02-03T10:49:04.842Z,100671.91
2023-02-03T10:51:41.656Z,100667.25
2023-02-03T10:54:41.392Z,100662.03
2023-02-03T10:57:17.665Z,100658.84
2023-02-03T10:59:48.249Z,100652.47
2023-02-03T11:02:45.870Z,100645.47
2023-02-03T11:05:24.950Z,100627.41
2023-02-03T11:07:55.683Z,100625.38
2023-02-03T11:10:37.806Z,100625.09
2023-02-03T11:13:19.337Z,100622.06
2023-02-03T11:15:53.215Z,100601.50
2023-02-03T11:18:39.160Z,100606.66
2023-02-03T11:21:26.802Z,100590.16
2023-02-03T11:23:57.836Z,100593.97
2023-02-03T11:26:28.999Z,100595.41
2023-02-03T11:29:00.532Z,100580.38
2023-02-03T11:31:32.029Z,100570.28
2023-02-03T11:34:06.322Z,100574.75
2023-02-03T11:36:36.261Z,100581.59
2023-02-03T11:39:11.210Z,100569.22
2023-02-03T11:41:40.968Z,100556.88
2023-02-03T11:44:14.532Z,100561.72
2023-02-03T11:46:46.221Z,100548.19
2023-02-03T11:49:55.939Z,100536.31
2023-02-03T11:52:54.649Z,100536.66
2023-02-03T11:55:34.984Z,100528.00
2023-02-03T11:58:29.371Z,100511.63
2023-02-03T12:00:59.813Z,100503.59
2023-02-03T12:03:36.199Z,100489.59
2023-02-03T12:06:26.305Z,100488.91
2023-02-03T12:09:09.150Z,100482.22
2023-02-03T12:11:49.835Z,100470.97
2023-02-03T12:14:32.674Z,100465.75
2023-02-03T12:17:33.541Z,100459.22
2023-02-03T12:20:24.477Z,100457.91
2023-02-03T12:23:19.124Z,100446.09
2023-02-03T12:26:01.934Z,100439.66
2023-02-03T12:28:38.852Z,100426.66
2023-02-03T12:31:21.667Z,100415.31
2023-02-03T12:33:55.168Z,100415.03
2023-02-03T12:36:30.695Z,100397.88
2023-02-03T12:39:09.165Z,100394.91
2023-02-03T12:41:43.174Z,100391.34
2023-02-03T12:44:55.481Z,100374.59
2023-02-03T12:47:46.096Z,100371.47
2023-02-03T12:50:30.772Z,100363.28
2023-02-03T12:53:05.975Z,100361.44
2023-02-03T12:55:41.749Z,100348.38
2023-02-03T12:58:42.591Z,100344.31
2023-02-03T13:01:29.588Z,100339.16
2023-02-03T13:03:57.223Z,100331.50
2023-02-03T13:06:42.937Z,100327.63
2023-02-03T13:09:39.786Z,100312.84
2023-02-03T13:12:17.535Z,100304.47
2023-02-03T13:14:54.835Z,100302.38
2023-02-03T13:18:11.933Z,100302.38
2023-02-03T13:20:39.517Z,100291.13
2023-02-03T13:23:12.588Z,100287.81
2023-02-03T13:26:19.430Z,100283.19
2023-02-03T13:29:02.158Z,100275.91
2023-02-03T13:32:09.471Z,100271.75
2023-02-03T13:34:46.406Z,100260.06
2023-02-03T13:37:55.408Z,100249.81
2023-02-03T13:40:32.278Z,100248.72
2023-02-03T13:43:05.729Z,100227.97
2023-02-03T13:45:34.865Z,100236.44
2023-02-03T13:48:19.091Z,100217.47
2023-02-03T13:50:47.855Z,100218.75
2023-02-03T13:53:25.793Z,100221.25
2023-02-03T13:55:57.794Z,100207.59
2023-02-03T13:58:30.152Z,100211.00
2023-02-03T14:00:57.740Z,100196.59
2023-02-03T14:03:25.351Z,100198.25
2023-02-03T14:05:55.288Z,100192.91
2023-02-03T14:08:28.915Z,100187.56
2023-02-03T14:11:34.182Z,100184.53
2023-02-03T14:14:11.144Z,100168.97
2023-02-03T14:16:47.673Z,100173.94
2023-02-03T14:19:35.265Z,100163.41
2023-02-03T14:22:10.760Z,100172.34
2023-02-03T14:24:40.275Z,100159.59
2023-02-03T14:27:17.779Z,100157.75
2023-02-03T14:29:45.694Z,100150.56
2023-02-03T14:32:14.975Z,100142.72
2023-02-03T14:34:47.789Z,100144.25
2023-02-03T14:37:30.450Z,100147.75
2023-02-03T14:40:33.319Z,100148.59
2023-02-03T14:43:28.845Z,100143.03
2023-02-03T14:46:20.698Z,100133.81
2023-02-03T14:48:54.362Z,100129.31
2023-02-03T14:51:22.433Z,100125.44
2023-02-03T14:54:10.735Z,100115.06
2023-02-03T14:57:27.791Z,100118.87
2023-02-03T15:00:14.162Z,100118.66
2023-02-03T15:03:08.951Z,100111.28
2023-02-03T15:05:48.733Z,100109.22
2023-02-03T15:08:44.115Z,100107.78
2023-02-03T15:11:27.307Z,100096.50
2023-02-03T15:13:57.355Z,100088.47
2023-02-03T15:16:27.470Z,100084.97
2023-02-03T15:18:59.717Z,100091.78
2023-02-03T15:21:27.950Z,100077.37
2023-02-03T15:23:56.954Z,100074.87
2023-02-03T15:26:31.428Z,100071.81
2023-02-03T15:29:05.071Z,100071.81
2023-02-03T15:31:43.892Z,100067.50
2023-02-03T15:34:56.095Z,100047.53
2023-02-03T15:37:30.214Z,100040.16
2023-02-03T15:40:15.109Z,100042.44
2023-02-03T15:42:54.897Z,100046.12
2023-02-03T15:45:36.032Z,100041.41
2023-02-03T15:48:42.279Z,100032.19
2023-02-03T15:51:16.446Z,100029.94
2023-02-03T15:53:47.532Z,100035.94
2023-02-03T15:56:41.656Z,100026.09
2023-02-03T15:59:33.830Z,100025.28
2023-02-03T16:02:07.759Z,100020.78
2023-02-03T16:04:35.552Z,100020.16
2023-02-03T16:07:03.199Z,100011.91
2023-02-03T16:09:41.927Z,100028.22
2023-02-03T16:12:29.516Z,100010.31
2023-02-03T16:14:59.269Z,100017.13
2023-02-03T16:17:39.766Z,100018.78
2023-02-03T16:20:13.424Z,100009.94
2023-02-03T16:22:48.848Z,100002.53
2023-02-03T16:25:29.425Z,99993.87
2023-02-03T16:31:35.458Z,99974.91
2023-02-03T16:34:31.990Z,99975.94
2023-02-03T16:37:19.297Z,99968.06
2023-02-03T16:40:05.050Z,99960.63
2023-02-03T16:42:59.964Z,99953.63
2023-02-03T16:45:45.181Z,99953.00
2023-02-03T16:48:31.229Z,99956.06
2023-02-03T16:51:06.786Z,99941.84
2023-02-03T16:53:39.494Z,99937.12
2023-02-03T16:56:08.341Z,99930.94
2023-02-03T16:58:53.996Z,99923.75
2023-02-03T17:01:25.616Z,99908.31
2023-02-03T17:03:55.358Z,99889.16
2023-02-03T17:06:24.792Z,99898.44
2023-02-03T17:08:57.757Z,99890.66
2023-02-03T17:11:29.519Z,99861.22
2023-02-03T17:13:58.545Z,99856.50
2023-02-03T17:16:31.300Z,99857.34
2023-02-03T17:35:43.824Z,99835.13
2023-02-03T17:58:39.435Z,99819.88
2023-02-03T18:01:35.744Z,99812.28
2023-02-03T18:04:09.191Z,99820.75
2023-02-03T18:09:37.879Z,99814.97
2023-02-03T18:12:06.208Z,99790.22
2023-02-03T18:15:26.181Z,99794.34
2023-02-03T18:20:38.059Z,99787.72
2023-02-03T18:23:08.408Z,99773.53
2023-02-03T18:26:23.135Z,99777.22
2023-02-03T18:28:55.651Z,99759.44
2023-02-03T18:31:26.334Z,99757.56
2023-02-03T18:34:02.451Z,99761.66
2023-02-03T18:36:30.232Z,99754.84
2023-02-03T18:38:57.934Z,99747.22
2023-02-03T18:41:29.471Z,99734.63
2023-02-03T18:43:57.452Z,99750.28
2023-02-03T18:46:50.929Z,99749.66
2023-02-03T18:49:25.389Z,99745.12
2023-02-03T18:51:53.144Z,99740.97
2023-02-03T18:54:25.440Z,99748.81
2023-02-03T18:56:53.348Z,99746.75
2023-02-03T18:59:22.071Z,99742.22
2023-02-03T19:01:52.197Z,99755.44
2023-02-03T19:04:24.803Z,99738.53
2023-02-03T19:06:55.624Z,99757.53
2023-02-03T19:09:25.440Z,99762.06
2023-02-03T19:11:58.798Z,99774.41
2023-02-03T19:14:28.783Z,99750.47
2023-02-03T19:17:14.853Z,99741.56
2023-02-03T19:19:46.138Z,99746.50
2023-02-03T19:22:31.581Z,99737.66
2023-02-03T19:25:01.429Z,99728.53
2023-02-03T19:27:31.764Z,99725.44
2023-02-03T19:30:02.608Z,99712.66
2023-02-03T19:32:43.046Z,99724.69
2023-02-03T19:35:16.721Z,99722.22
2023-02-03T19:38:04.484Z,99740.78
2023-02-03T19:40:32.483Z,99744.28
2023-02-03T19:43:00.748Z,99705.47
2023-02-03T19:45:28.892Z,99710.22
2023-02-03T19:48:01.741Z,99715.59
2023-02-03T19:50:30.402Z,99727.78
2023-02-03T19:52:58.229Z,99722.69
2023-02-03T19:55:30.876Z,99707.00
2023-02-03T19:58:00.092Z,99700.03
2023-02-03T20:00:31.830Z,99728.31
2023-02-03T20:02:59.540Z,99726.03
2023-02-03T20:05:36.118Z,99736.16
2023-02-03T20:08:04.738Z,99727.47
2023-02-03T20:10:49.091Z,99747.94
2023-02-03T20:13:17.177Z,99745.47
2023-02-03T20:15:47.668Z,99762.59
2023-02-03T20:18:15.678Z,99761.97
2023-02-03T20:20:43.424Z,99763.44
2023-02-03T20:23:11.127Z,99765.09
2023-02-03T20:25:40.593Z,99761.97
2023-02-03T20:28:08.725Z,99763.41
2023-02-03T20:30:36.852Z,99758.69
2023-02-03T20:33:05.809Z,99764.66
2023-02-03T20:35:33.485Z,99765.88
2023-02-03T20:38:04.379Z,99752.91
2023-02-03T20:43:22.869Z,99743.81
2023-02-03T20:45:52.448Z,99734.13
2023-02-03T20:48:34.672Z,99741.56
2023-02-03T20:51:04.535Z,99733.31
2023-02-03T20:53:35.666Z,99704.22
2023-02-03T20:56:08.120Z,99710.16
2023-02-03T20:58:38.567Z,99723.81
2023-02-03T21:01:16.876Z,99714.94
2023-02-03T21:04:19.653Z,99704.00
2023-02-03T21:06:47.306Z,99702.75
2023-02-03T21:09:17.309Z,99697.81
2023-02-03T21:11:48.027Z,99707.06
2023-02-03T21:14:24.506Z,99704.19
2023-02-03T21:16:54.049Z,99708.94
2023-02-03T21:19:28.506Z,99703.81
2023-02-03T21:21:57.822Z,99701.94
2023-02-03T21:24:29.293Z,99714.31
2023-02-03T21:27:02.972Z,99705.22
2023-02-03T21:29:34.345Z,99695.31
2023-02-03T21:32:04.643Z,99702.56
2023-02-03T21:34:38.014Z,99704.37
2023-02-03T21:37:41.939Z,99712.25
2023-02-03T21:40:31.968Z,99701.09
2023-02-03T21:43:02.091Z,99704.78
2023-02-03T21:45:44.563Z,99716.53
2023-02-03T21:48:43.848Z,99715.28
2023-02-03T21:52:13.531Z,99724.16
2023-02-03T22:20:35.268Z,99734.84
